Terminal Aerodrome Forecast
Issued by NWS

Home | Current Version | Previous Version | Text Only | Print | Product List | Glossary On
Versions: 1 2 3 4 5 6 7 8 9 10 11 12 13 14 15 16 17 18 19 20 21
750
FTUS46 KSEW 301720
TAFSEA
TAF
KSEA 301720Z 3018/3124 22010KT P6SM BKN020
     FM301900 22010KT P6SM SCT070
     FM310500 19008KT P6SM SCT050 BKN070
     FM311000 19008KT P6SM OVC015
     FM311700 20006KT P6SM BKN020=

USA.gov is the U.S. government's official web portal to all federal, state and local government web resources and services.